sensor_id;sensor_type;location;lat;lon;timestamp;pressure;altitude;pressure_sealevel;temperature;humidity
12077;BME280;12420;42.676;23.262;2023-08-30T00:02:17;93672.78;;;22.38;87.86
12077;BME280;12420;42.676;23.262;2023-08-30T00:04:48;93653.19;;;22.26;85.02
12077;BME280;12420;42.676;23.262;2023-08-30T00:07:17;93618.84;;;22.16;86.46
12077;BME280;12420;42.676;23.262;2023-08-30T00:09:45;93725.88;;;22.71;85.84
12077;BME280;12420;42.676;23.262;2023-08-30T00:12:12;93711.50;;;22.51;86.41
12077;BME280;12420;42.676;23.262;2023-08-30T00:14:39;93670.00;;;22.24;86.65
12077;BME280;12420;42.676;23.262;2023-08-30T00:17:08;93691.41;;;22.29;85.89
12077;BME280;12420;42.676;23.262;2023-08-30T00:19:35;93713.53;;;22.21;86.77
12077;BME280;12420;42.676;23.262;2023-08-30T00:22:04;93728.97;;;22.33;88.08
12077;BME280;12420;42.676;23.262;2023-08-30T00:24:33;93736.16;;;22.50;86.58
12077;BME280;12420;42.676;23.262;2023-08-30T00:27:00;93712.81;;;22.34;86.98
12077;BME280;12420;42.676;23.262;2023-08-30T00:29:27;93699.75;;;21.85;87.20
12077;BME280;12420;42.676;23.262;2023-08-30T00:31:54;93723.97;;;21.91;89.05
12077;BME280;12420;42.676;23.262;2023-08-30T00:34:23;93716.03;;;21.87;88.63
12077;BME280;12420;42.676;23.262;2023-08-30T00:36:50;93722.59;;;21.92;89.91
12077;BME280;12420;42.676;23.262;2023-08-30T00:39:17;93718.94;;;22.03;88.74
12077;BME280;12420;42.676;23.262;2023-08-30T00:41:44;93657.09;;;21.63;88.01
12077;BME280;12420;42.676;23.262;2023-08-30T00:44:12;93597.94;;;21.22;87.41
12077;BME280;12420;42.676;23.262;2023-08-30T00:46:39;93722.06;;;21.81;88.43
12077;BME280;12420;42.676;23.262;2023-08-30T00:49:07;93732.22;;;22.14;87.86
12077;BME280;12420;42.676;23.262;2023-08-30T00:51:35;93737.72;;;22.12;87.34
12077;BME280;12420;42.676;23.262;2023-08-30T00:54:02;93733.13;;;22.05;87.46
12077;BME280;12420;42.676;23.262;2023-08-30T00:56:30;93707.56;;;21.87;87.33
12077;BME280;12420;42.676;23.262;2023-08-30T00:58:58;93741.16;;;21.83;88.63
12077;BME280;12420;42.676;23.262;2023-08-30T01:01:26;93757.03;;;21.90;88.46
12077;BME280;12420;42.676;23.262;2023-08-30T01:03:52;93701.09;;;21.71;87.84
12077;BME280;12420;42.676;23.262;2023-08-30T01:06:20;93628.66;;;21.32;87.77
12077;BME280;12420;42.676;23.262;2023-08-30T01:08:51;93721.13;;;22.04;87.87
12077;BME280;12420;42.676;23.262;2023-08-30T01:11:28;93699.97;;;21.76;88.15
12077;BME280;12420;42.676;23.262;2023-08-30T01:14:00;93741.00;;;22.20;88.40
12077;BME280;12420;42.676;23.262;2023-08-30T01:16:28;93724.88;;;21.95;88.59
12077;BME280;12420;42.676;23.262;2023-08-30T01:18:56;93737.09;;;22.00;88.29
12077;BME280;12420;42.676;23.262;2023-08-30T01:21:30;93741.91;;;22.11;87.98
12077;BME280;12420;42.676;23.262;2023-08-30T01:24:03;93733.25;;;21.93;87.14
12077;BME280;12420;42.676;23.262;2023-08-30T01:26:40;93754.75;;;22.28;86.89
12077;BME280;12420;42.676;23.262;2023-08-30T01:29:11;93708.28;;;21.87;87.94
12077;BME280;12420;42.676;23.262;2023-08-30T01:31:40;93721.75;;;22.03;87.67
12077;BME280;12420;42.676;23.262;2023-08-30T01:34:09;93714.97;;;22.08;86.66
12077;BME280;12420;42.676;23.262;2023-08-30T01:36:36;93739.50;;;22.33;86.19
12077;BME280;12420;42.676;23.262;2023-08-30T01:39:04;93735.53;;;22.38;86.46
12077;BME280;12420;42.676;23.262;2023-08-30T01:41:32;93648.31;;;21.57;86.78
12077;BME280;12420;42.676;23.262;2023-08-30T01:44:03;93676.16;;;22.06;86.73
12077;BME280;12420;42.676;23.262;2023-08-30T01:46:32;93708.84;;;22.25;86.44
12077;BME280;12420;42.676;23.262;2023-08-30T01:49:01;93655.41;;;21.86;86.63
12077;BME280;12420;42.676;23.262;2023-08-30T01:51:30;93758.94;;;22.27;87.72
12077;BME280;12420;42.676;23.262;2023-08-30T01:53:57;93732.81;;;22.13;87.77
12077;BME280;12420;42.676;23.262;2023-08-30T01:56:24;93724.38;;;21.99;87.03
12077;BME280;12420;42.676;23.262;2023-08-30T01:58:51;93747.25;;;22.19;89.21
12077;BME280;12420;42.676;23.262;2023-08-30T02:01:18;93726.38;;;21.96;88.13
12077;BME280;12420;42.676;23.262;2023-08-30T02:03:46;93736.38;;;21.99;88.17
12077;BME280;12420;42.676;23.262;2023-08-30T02:06:17;93729.59;;;21.91;88.74
12077;BME280;12420;42.676;23.262;2023-08-30T02:08:52;93679.28;;;21.57;88.02
12077;BME280;12420;42.676;23.262;2023-08-30T02:11:23;93706.84;;;21.86;86.63
12077;BME280;12420;42.676;23.262;2023-08-30T02:13:54;93735.44;;;22.08;87.09
12077;BME280;12420;42.676;23.262;2023-08-30T02:16:25;93640.88;;;21.36;87.08
12077;BME280;12420;42.676;23.262;2023-08-30T02:18:55;93728.75;;;22.16;86.90
12077;BME280;12420;42.676;23.262;2023-08-30T02:21:23;93676.78;;;21.50;86.32
12077;BME280;12420;42.676;23.262;2023-08-30T02:23:52;93764.47;;;22.25;87.31
12077;BME280;12420;42.676;23.262;2023-08-30T02:26:19;93735.97;;;22.19;86.58
12077;BME280;12420;42.676;23.262;2023-08-30T02:28:47;93695.69;;;21.88;86.09
12077;BME280;12420;42.676;23.262;2023-08-30T02:31:14;93679.63;;;21.91;86.38
12077;BME280;12420;42.676;23.262;2023-08-30T02:33:41;93677.41;;;21.62;83.83
12077;BME280;12420;42.676;23.262;2023-08-30T02:36:09;93704.00;;;21.73;86.08
12077;BME280;12420;42.676;23.262;2023-08-30T02:38:36;93724.25;;;21.83;88.57
12077;BME280;12420;42.676;23.262;2023-08-30T02:41:03;93728.84;;;21.90;88.58
12077;BME280;12420;42.676;23.262;2023-08-30T02:43:30;93666.47;;;21.40;89.31
12077;BME280;12420;42.676;23.262;2023-08-30T02:45:57;93712.78;;;21.79;90.08
12077;BME280;12420;42.676;23.262;2023-08-30T02:48:23;93671.88;;;21.50;89.98
12077;BME280;12420;42.676;23.262;2023-08-30T02:50:51;93755.69;;;21.91;90.23
12077;BME280;12420;42.676;23.262;2023-08-30T02:53:19;93658.06;;;21.29;91.37
12077;BME280;12420;42.676;23.262;2023-08-30T02:55:46;93680.72;;;21.44;91.51
12077;BME280;12420;42.676;23.262;2023-08-30T02:58:13;93716.41;;;21.67;90.82
12077;BME280;12420;42.676;23.262;2023-08-30T03:00:40;93656.50;;;21.25;89.62
12077;BME280;12420;42.676;23.262;2023-08-30T03:03:07;93577.50;;;20.68;89.28
12077;BME280;12420;42.676;23.262;2023-08-30T03:05:34;93710.47;;;21.61;89.16
12077;BME280;12420;42.676;23.262;2023-08-30T03:08:01;93712.75;;;21.65;89.39
12077;BME280;12420;42.676;23.262;2023-08-30T03:10:30;93724.66;;;21.77;89.51
12077;BME280;12420;42.676;23.262;2023-08-30T03:12:57;93640.31;;;21.12;88.29
12077;BME280;12420;42.676;23.262;2023-08-30T03:15:24;93670.34;;;21.21;85.72
12077;BME280;12420;42.676;23.262;2023-08-30T03:17:51;93725.41;;;21.78;85.97
12077;BME280;12420;42.676;23.262;2023-08-30T03:20:18;93723.41;;;21.80;85.90
12077;BME280;12420;42.676;23.262;2023-08-30T03:22:46;93658.34;;;21.21;84.24
12077;BME280;12420;42.676;23.262;2023-08-30T03:25:16;93691.19;;;21.70;84.63
12077;BME280;12420;42.676;23.262;2023-08-30T03:27:47;93646.91;;;21.31;84.12
12077;BME280;12420;42.676;23.262;2023-08-30T03:30:15;93713.53;;;21.93;84.55
12077;BME280;12420;42.676;23.262;2023-08-30T03:32:56;93581.53;;;21.05;83.07
12077;BME280;12420;42.676;23.262;2023-08-30T03:35:22;93695.91;;;21.79;82.49
12077;BME280;12420;42.676;23.262;2023-08-30T03:37:49;93657.69;;;21.48;83.03
12077;BME280;12420;42.676;23.262;2023-08-30T03:40:17;93699.97;;;21.76;83.17
12077;BME280;12420;42.676;23.262;2023-08-30T03:42:43;93702.25;;;21.79;83.42
12077;BME280;12420;42.676;23.262;2023-08-30T03:45:14;93687.94;;;21.75;83.30
12077;BME280;12420;42.676;23.262;2023-08-30T03:47:41;93696.09;;;21.83;84.06
12077;BME280;12420;42.676;23.262;2023-08-30T03:50:08;93675.53;;;21.53;83.87
12077;BME280;12420;42.676;23.262;2023-08-30T03:52:35;93716.41;;;21.67;84.85
12077;BME280;12420;42.676;23.262;2023-08-30T03:55:02;93692.75;;;21.45;84.26
12077;BME280;12420;42.676;23.262;2023-08-30T03:57:29;93719.63;;;21.48;83.92
12077;BME280;12420;42.676;23.262;2023-08-30T03:59:57;93716.09;;;21.48;84.24
12077;BME280;12420;42.676;23.262;2023-08-30T04:02:26;93653.03;;;21.13;83.61
12077;BME280;12420;42.676;23.262;2023-08-30T04:04:53;93719.75;;;21.50;84.62
12077;BME280;12420;42.676;23.262;2023-08-30T04:07:20;93733.31;;;21.67;85.07
12077;BME280;12420;42.676;23.262;2023-08-30T04:09:47;93617.03;;;20.84;85.70
12077;BME280;12420;42.676;23.262;2023-08-30T04:12:16;93743.88;;;21.81;86.61
12077;BME280;12420;42.676;23.262;2023-08-30T04:14:43;93659.09;;;21.21;84.34
12077;BME280;12420;42.676;23.262;2023-08-30T04:17:10;93727.69;;;21.67;83.39
12077;BME280;12420;42.676;23.262;2023-08-30T04:19:39;93609.03;;;21.06;82.24
12077;BME280;12420;42.676;23.262;2023-08-30T04:22:10;93617.16;;;21.00;80.84
12077;BME280;12420;42.676;23.262;2023-08-30T04:24:40;93677.19;;;21.44;80.52
12077;BME280;12420;42.676;23.262;2023-08-30T04:27:13;93651.00;;;21.41;80.61
12077;BME280;12420;42.676;23.262;2023-08-30T04:29:41;93713.53;;;21.93;80.97
12077;BME280;12420;42.676;23.262;2023-08-30T04:32:10;93751.09;;;22.11;78.94
12077;BME280;12420;42.676;23.262;2023-08-30T04:34:39;93749.53;;;21.95;78.24
12077;BME280;12420;42.676;23.262;2023-08-30T04:37:08;93811.16;;;22.42;78.12
12077;BME280;12420;42.676;23.262;2023-08-30T04:39:35;93726.41;;;21.57;76.50
12077;BME280;12420;42.676;23.262;2023-08-30T04:42:05;93802.38;;;22.22;76.77
12077;BME280;12420;42.676;23.262;2023-08-30T04:44:42;93780.22;;;22.16;75.75
12077;BME280;12420;42.676;23.262;2023-08-30T04:47:20;93773.84;;;22.02;76.22
12077;BME280;12420;42.676;23.262;2023-08-30T04:49:51;93746.06;;;21.68;76.52
12077;BME280;12420;42.676;23.262;2023-08-30T04:52:18;93785.94;;;21.91;78.00
12077;BME280;12420;42.676;23.262;2023-08-30T04:54:45;93765.19;;;21.44;80.17
12077;BME280;12420;42.676;23.262;2023-08-30T04:57:16;93808.75;;;21.83;83.46
12077;BME280;12420;42.676;23.262;2023-08-30T04:59:43;93706.25;;;20.84;84.08
12077;BME280;12420;42.676;23.262;2023-08-30T05:02:11;93793.97;;;21.43;84.36
12077;BME280;12420;42.676;23.262;2023-08-30T05:04:39;93802.44;;;21.57;85.42
12077;BME280;12420;42.676;23.262;2023-08-30T05:07:11;93695.81;;;20.72;86.31
12077;BME280;12420;42.676;23.262;2023-08-30T05:09:40;93790.09;;;21.76;87.72
12077;BME280;12420;42.676;23.262;2023-08-30T05:12:08;93713.81;;;20.93;86.77
12077;BME280;12420;42.676;23.262;2023-08-30T05:14:36;93681.69;;;20.09;90.88
12077;BME280;12420;42.676;23.262;2023-08-30T05:17:06;93662.41;;;20.04;89.31
12077;BME280;12420;42.676;23.262;2023-08-30T05:19:34;93769.38;;;20.80;86.72
12077;BME280;12420;42.676;23.262;2023-08-30T05:22:06;93724.03;;;20.37;87.11
12077;BME280;12420;42.676;23.262;2023-08-30T05:24:35;93705.31;;;20.42;87.73
12077;BME280;12420;42.676;23.262;2023-08-30T05:27:05;93654.16;;;19.82;89.20
12077;BME280;12420;42.676;23.262;2023-08-30T05:29:33;93654.56;;;20.14;87.77
12077;BME280;12420;42.676;23.262;2023-08-30T05:32:01;93823.38;;;21.02;88.02
12077;BME280;12420;42.676;23.262;2023-08-30T05:34:54;93680.16;;;20.32;88.92
12077;BME280;12420;42.676;23.262;2023-08-30T05:37:33;93710.44;;;20.83;89.35
12077;BME280;12420;42.676;23.262;2023-08-30T05:40:05;93686.53;;;20.70;87.02
12077;BME280;12420;42.676;23.262;2023-08-30T05:42:42;93716.50;;;21.16;84.25
12077;BME280;12420;42.676;23.262;2023-08-30T05:45:14;93731.50;;;21.07;85.81
12077;BME280;12420;42.676;23.262;2023-08-30T05:47:41;93712.59;;;21.35;85.92
12077;BME280;12420;42.676;23.262;2023-08-30T05:50:15;93758.16;;;21.85;85.21
12077;BME280;12420;42.676;23.262;2023-08-30T05:52:42;93778.53;;;21.97;84.97
12077;BME280;12420;42.676;23.262;2023-08-30T05:55:14;93665.06;;;21.28;79.67
12077;BME280;12420;42.676;23.262;2023-08-30T05:57:41;93740.19;;;21.64;81.73
12077;BME280;12420;42.676;23.262;2023-08-30T06:03:03;93815.38;;;22.01;81.52
12077;BME280;12420;42.676;23.262;2023-08-30T06:05:34;93721.88;;;21.38;83.21
12077;BME280;12420;42.676;23.262;2023-08-30T06:08:01;93702.13;;;21.24;79.29
12077;BME280;12420;42.676;23.262;2023-08-30T06:10:29;93793.19;;;22.35;79.56
12077;BME280;12420;42.676;23.262;2023-08-30T06:12:56;93754.63;;;22.12;76.88
12077;BME280;12420;42.676;23.262;2023-08-30T06:15:28;93792.13;;;22.56;74.22
12077;BME280;12420;42.676;23.262;2023-08-30T06:17:55;93762.28;;;22.37;76.59
12077;BME280;12420;42.676;23.262;2023-08-30T06:20:24;93812.59;;;22.70;74.27
12077;BME280;12420;42.676;23.262;2023-08-30T06:22:51;93808.38;;;22.99;75.71
12077;BME280;12420;42.676;23.262;2023-08-30T06:25:18;93721.09;;;22.60;72.43
12077;BME280;12420;42.676;23.262;2023-08-30T06:27:55;93778.94;;;23.18;73.03
12077;BME280;12420;42.676;23.262;2023-08-30T06:30:23;93672.38;;;22.73;71.30
12077;BME280;12420;42.676;23.262;2023-08-30T06:32:50;93763.03;;;22.81;72.70
12077;BME280;12420;42.676;23.262;2023-08-30T06:35:17;93841.59;;;23.44;73.32
12077;BME280;12420;42.676;23.262;2023-08-30T06:37:44;93683.19;;;22.63;72.63
12077;BME280;12420;42.676;23.262;2023-08-30T06:40:11;93690.69;;;22.72;72.49
12077;BME280;12420;42.676;23.262;2023-08-30T06:42:38;93681.13;;;22.79;71.80
12077;BME280;12420;42.676;23.262;2023-08-30T06:45:40;93717.06;;;22.79;71.56
12077;BME280;12420;42.676;23.262;2023-08-30T06:48:09;93795.56;;;23.71;70.88
12077;BME280;12420;42.676;23.262;2023-08-30T06:50:38;93794.06;;;23.54;69.12
12077;BME280;12420;42.676;23.262;2023-08-30T06:53:05;93677.94;;;23.01;69.02
12077;BME280;12420;42.676;23.262;2023-08-30T06:55:32;93761.69;;;23.42;70.24
12077;BME280;12420;42.676;23.262;2023-08-30T06:58:01;93792.69;;;23.55;70.96
12077;BME280;12420;42.676;23.262;2023-08-30T07:00:30;93821.19;;;23.91;73.58
12077;BME280;12420;42.676;23.262;2023-08-30T07:03:01;93806.63;;;23.97;72.53
12077;BME280;12420;42.676;23.262;2023-08-30T07:05:31;93788.28;;;23.82;71.96
12077;BME280;12420;42.676;23.262;2023-08-30T07:07:59;93799.75;;;23.86;71.21
12077;BME280;12420;42.676;23.262;2023-08-30T07:10:29;93685.56;;;23.44;70.99
12077;BME280;12420;42.676;23.262;2023-08-30T07:12:56;93780.06;;;24.04;69.69
12077;BME280;12420;42.676;23.262;2023-08-30T07:15:23;93808.16;;;24.47;68.85
12077;BME280;12420;42.676;23.262;2023-08-30T07:17:53;93728.63;;;23.60;69.53
12077;BME280;12420;42.676;23.262;2023-08-30T07:20:24;93804.03;;;24.35;69.22
12077;BME280;12420;42.676;23.262;2023-08-30T07:22:53;93738.13;;;23.67;68.46
12077;BME280;12420;42.676;23.262;2023-08-30T07:25:25;93814.72;;;24.36;68.05
12077;BME280;12420;42.676;23.262;2023-08-30T07:28:07;93782.63;;;23.98;64.83
12077;BME280;12420;42.676;23.262;2023-08-30T07:30:41;93704.16;;;23.80;66.05
12077;BME280;12420;42.676;23.262;2023-08-30T07:33:22;93693.94;;;23.73;67.61
12077;BME280;12420;42.676;23.262;2023-08-30T07:42:26;93681.63;;;23.98;63.16
12077;BME280;12420;42.676;23.262;2023-08-30T07:44:55;93707.50;;;24.09;64.02
12077;BME280;12420;42.676;23.262;2023-08-30T07:47:23;93727.94;;;24.57;63.23
12077;BME280;12420;42.676;23.262;2023-08-30T07:52:45;93718.00;;;24.40;62.77
12077;BME280;12420;42.676;23.262;2023-08-30T07:55:28;93719.75;;;24.47;61.31
12077;BME280;12420;42.676;23.262;2023-08-30T08:08:15;93701.78;;;24.92;58.07
12077;BME280;12420;42.676;23.262;2023-08-30T08:10:56;93800.91;;;25.46;56.36
12077;BME280;12420;42.676;23.262;2023-08-30T08:13:33;93725.81;;;24.57;57.54
12077;BME280;12420;42.676;23.262;2023-08-30T08:16:14;93733.69;;;24.43;56.69
12077;BME280;12420;42.676;23.262;2023-08-30T08:18:46;93699.84;;;24.45;56.02
12077;BME280;12420;42.676;23.262;2023-08-30T08:21:19;93800.38;;;25.16;56.04
12077;BME280;12420;42.676;23.262;2023-08-30T08:24:10;93833.03;;;25.52;56.67
12077;BME280;12420;42.676;23.262;2023-08-30T08:26:41;93760.78;;;24.82;55.78
12077;BME280;12420;42.676;23.262;2023-08-30T08:29:50;93730.06;;;24.92;56.15
12077;BME280;12420;42.676;23.262;2023-08-30T08:32:37;93856.59;;;25.93;57.13
12077;BME280;12420;42.676;23.262;2023-08-30T08:35:19;93843.66;;;25.88;56.60
12077;BME280;12420;42.676;23.262;2023-08-30T08:37:47;93798.38;;;25.54;57.46
12077;BME280;12420;42.676;23.262;2023-08-30T08:43:34;93856.19;;;26.01;58.52
12077;BME280;12420;42.676;23.262;2023-08-30T08:46:09;93815.03;;;25.64;60.29
12077;BME280;12420;42.676;23.262;2023-08-30T08:48:40;93834.16;;;25.81;59.38
12077;BME280;12420;42.676;23.262;2023-08-30T08:51:28;93821.41;;;26.00;58.23
12077;BME280;12420;42.676;23.262;2023-08-30T08:54:02;93821.84;;;25.92;58.54
12077;BME280;12420;42.676;23.262;2023-08-30T08:56:35;93742.41;;;25.17;57.30
12077;BME280;12420;42.676;23.262;2023-08-30T08:59:08;93736.66;;;25.32;57.75
12077;BME280;12420;42.676;23.262;2023-08-30T09:01:36;93745.78;;;25.31;57.56
12077;BME280;12420;42.676;23.262;2023-08-30T09:04:07;93777.75;;;25.33;58.39
12077;BME280;12420;42.676;23.262;2023-08-30T09:06:39;93720.53;;;25.01;58.44
12077;BME280;12420;42.676;23.262;2023-08-30T09:09:17;93835.28;;;25.74;59.21
12077;BME280;12420;42.676;23.262;2023-08-30T09:12:03;93705.31;;;25.10;59.61
12077;BME280;12420;42.676;23.262;2023-08-30T09:14:58;93793.25;;;25.68;60.11
12077;BME280;12420;42.676;23.262;2023-08-30T09:17:37;93694.59;;;25.25;58.17
12077;BME280;12420;42.676;23.262;2023-08-30T09:20:27;93718.09;;;25.47;57.17
12077;BME280;12420;42.676;23.262;2023-08-30T09:23:01;93703.31;;;25.69;57.72
12077;BME280;12420;42.676;23.262;2023-08-30T09:25:54;93680.31;;;25.98;57.29
12077;BME280;12420;42.676;23.262;2023-08-30T09:28:42;93777.09;;;26.49;53.77
12077;BME280;12420;42.676;23.262;2023-08-30T09:31:20;93751.66;;;26.31;53.72
12077;BME280;12420;42.676;23.262;2023-08-30T09:33:50;93696.72;;;26.22;54.38
12077;BME280;12420;42.676;23.262;2023-08-30T09:36:24;93713.91;;;26.26;53.75
12077;BME280;12420;42.676;23.262;2023-08-30T09:38:53;93754.59;;;26.75;53.98
12077;BME280;12420;42.676;23.262;2023-08-30T09:41:32;93837.16;;;27.23;54.27
12077;BME280;12420;42.676;23.262;2023-08-30T09:44:12;93698.56;;;26.33;54.02
12077;BME280;12420;42.676;23.262;2023-08-30T09:46:44;93783.84;;;27.01;54.62
12077;BME280;12420;42.676;23.262;2023-08-30T09:49:26;93712.06;;;26.55;54.85
12077;BME280;12420;42.676;23.262;2023-08-30T09:51:55;93699.34;;;26.78;54.14
12077;BME280;12420;42.676;23.262;2023-08-30T09:54:24;93719.84;;;26.76;52.83
12077;BME280;12420;42.676;23.262;2023-08-30T09:57:00;93684.41;;;26.35;53.43
12077;BME280;12420;42.676;23.262;2023-08-30T09:59:37;93672.16;;;26.51;52.45
12077;BME280;12420;42.676;23.262;2023-08-30T10:02:10;93764.19;;;27.30;53.11
12077;BME280;12420;42.676;23.262;2023-08-30T10:04:48;93691.22;;;26.68;51.48
12077;BME280;12420;42.676;23.262;2023-08-30T10:07:21;93764.84;;;27.06;50.97
12077;BME280;12420;42.676;23.262;2023-08-30T10:10:06;93754.34;;;26.89;51.28
12077;BME280;12420;42.676;23.262;2023-08-30T10:12:35;93685.00;;;26.32;51.68
12077;BME280;12420;42.676;23.262;2023-08-30T10:15:14;93668.38;;;26.22;51.04
12077;BME280;12420;42.676;23.262;2023-08-30T10:17:46;93705.47;;;26.70;50.02
12077;BME280;12420;42.676;23.262;2023-08-30T10:20:20;93811.91;;;27.33;49.83
12077;BME280;12420;42.676;23.262;2023-08-30T10:22:55;93781.97;;;27.52;50.47
12077;BME280;12420;42.676;23.262;2023-08-30T10:25:33;93727.41;;;26.90;51.49
12077;BME280;12420;42.676;23.262;2023-08-30T10:28:03;93674.25;;;26.70;49.60
12077;BME280;12420;42.676;23.262;2023-08-30T10:30:33;93770.44;;;27.70;48.83
12077;BME280;12420;42.676;23.262;2023-08-30T10:36:33;93757.72;;;27.73;44.36
12077;BME280;12420;42.676;23.262;2023-08-30T10:39:26;93708.25;;;27.34;44.60
12077;BME280;12420;42.676;23.262;2023-08-30T10:41:54;93726.31;;;27.45;44.67
12077;BME280;12420;42.676;23.262;2023-08-30T10:44:23;93681.72;;;27.25;43.58
12077;BME280;12420;42.676;23.262;2023-08-30T10:46:54;93763.69;;;28.31;44.02
12077;BME280;12420;42.676;23.262;2023-08-30T10:49:21;93682.31;;;27.94;43.20
12077;BME280;12420;42.676;23.262;2023-08-30T10:51:56;93737.50;;;28.61;42.62
12077;BME280;12420;42.676;23.262;2023-08-30T10:54:38;93748.38;;;28.69;42.87
12077;BME280;12420;42.676;23.262;2023-08-30T10:57:13;93676.16;;;28.30;42.26
12077;BME280;12420;42.676;23.262;2023-08-30T10:59:40;93748.81;;;29.13;41.61
12077;BME280;12420;42.676;23.262;2023-08-30T11:02:14;93645.38;;;28.22;40.67
12077;BME280;12420;42.676;23.262;2023-08-30T11:04:43;93753.53;;;29.05;40.06
12077;BME280;12420;42.676;23.262;2023-08-30T11:07:24;93749.00;;;29.21;39.40
12077;BME280;12420;42.676;23.262;2023-08-30T11:09:57;93735.38;;;28.90;39.55
12077;BME280;12420;42.676;23.262;2023-08-30T11:12:24;93746.28;;;28.99;39.64
12077;BME280;12420;42.676;23.262;2023-08-30T11:14:55;93669.06;;;28.57;39.10
12077;BME280;12420;42.676;23.262;2023-08-30T11:17:22;93690.13;;;28.74;37.29
12077;BME280;12420;42.676;23.262;2023-08-30T11:19:51;93661.16;;;28.53;36.55
12077;BME280;12420;42.676;23.262;2023-08-30T11:22:20;93752.63;;;29.24;35.64
12077;BME280;12420;42.676;23.262;2023-08-30T11:24:47;93725.28;;;29.13;34.16
12077;BME280;12420;42.676;23.262;2023-08-30T11:27:18;93760.09;;;29.09;33.96
12077;BME280;12420;42.676;23.262;2023-08-30T11:29:45;93739.47;;;28.83;33.42
12077;BME280;12420;42.676;23.262;2023-08-30T11:32:12;93711.72;;;28.83;33.86
12077;BME280;12420;42.676;23.262;2023-08-30T11:34:39;93644.63;;;28.48;33.97
12077;BME280;12420;42.676;23.262;2023-08-30T11:37:07;93674.69;;;28.83;34.33
12077;BME280;12420;42.676;23.262;2023-08-30T11:39:36;93637.91;;;28.63;33.56
12077;BME280;12420;42.676;23.262;2023-08-30T11:42:04;93711.19;;;29.19;33.04
12077;BME280;12420;42.676;23.262;2023-08-30T11:44:33;93678.56;;;28.96;33.51
12077;BME280;12420;42.676;23.262;2023-08-30T11:47:01;93705.25;;;29.39;33.68
12077;BME280;12420;42.676;23.262;2023-08-30T11:49:30;93728.56;;;29.63;32.13
12077;BME280;12420;42.676;23.262;2023-08-30T11:51:59;93598.13;;;28.67;31.57
12077;BME280;12420;42.676;23.262;2023-08-30T11:54:26;93625.94;;;28.69;32.72
12077;BME280;12420;42.676;23.262;2023-08-30T11:56:55;93682.59;;;29.15;32.74
12077;BME280;12420;42.676;23.262;2023-08-30T11:59:22;93690.34;;;29.42;33.05
12077;BME280;12420;42.676;23.262;2023-08-30T12:01:52;93701.06;;;29.74;32.67
12077;BME280;12420;42.676;23.262;2023-08-30T12:04:19;93699.09;;;29.83;32.43
12077;BME280;12420;42.676;23.262;2023-08-30T12:06:51;93681.97;;;29.83;31.67
12077;BME280;12420;42.676;23.262;2023-08-30T12:09:19;93690.84;;;29.97;31.42
12077;BME280;12420;42.676;23.262;2023-08-30T12:11:47;93671.66;;;30.02;30.95
12077;BME280;12420;42.676;23.262;2023-08-30T12:14:16;93695.66;;;30.25;30.50
12077;BME280;12420;42.676;23.262;2023-08-30T12:16:43;93697.59;;;29.80;29.74
12077;BME280;12420;42.676;23.262;2023-08-30T12:19:14;93683.03;;;30.00;30.95
12077;BME280;12420;42.676;23.262;2023-08-30T12:21:43;93690.63;;;29.87;30.97
12077;BME280;12420;42.676;23.262;2023-08-30T12:24:10;93690.75;;;29.93;30.98
12077;BME280;12420;42.676;23.262;2023-08-30T12:26:37;93648.75;;;29.63;30.32
12077;BME280;12420;42.676;23.262;2023-08-30T12:29:05;93671.44;;;29.92;29.02
12077;BME280;12420;42.676;23.262;2023-08-30T12:31:34;93619.25;;;29.51;27.80
12077;BME280;12420;42.676;23.262;2023-08-30T12:34:01;93683.88;;;30.06;27.69
12077;BME280;12420;42.676;23.262;2023-08-30T12:36:28;93686.69;;;29.70;27.94
12077;BME280;12420;42.676;23.262;2023-08-30T12:38:54;93675.31;;;30.06;27.50
12077;BME280;12420;42.676;23.262;2023-08-30T12:41:24;93644.38;;;29.93;27.06
12077;BME280;12420;42.676;23.262;2023-08-30T12:43:53;93671.88;;;30.14;26.69
12077;BME280;12420;42.676;23.262;2023-08-30T12:46:20;93656.44;;;30.25;26.67
12077;BME280;12420;42.676;23.262;2023-08-30T12:48:48;93632.31;;;29.96;26.73
12077;BME280;12420;42.676;23.262;2023-08-30T12:51:15;93590.03;;;29.86;26.83
12077;BME280;12420;42.676;23.262;2023-08-30T12:53:45;93575.97;;;29.60;27.63
12077;BME280;12420;42.676;23.262;2023-08-30T12:56:11;93666.19;;;30.53;27.99
12077;BME280;12420;42.676;23.262;2023-08-30T12:58:39;93583.44;;;29.76;27.89
12077;BME280;12420;42.676;23.262;2023-08-30T13:01:06;93643.22;;;30.44;27.06
12077;BME280;12420;42.676;23.262;2023-08-30T13:03:33;93606.00;;;30.00;26.69
12077;BME280;12420;42.676;23.262;2023-08-30T13:06:04;93620.22;;;30.34;26.86
12077;BME280;12420;42.676;23.262;2023-08-30T13:08:31;93670.00;;;30.65;25.72
12077;BME280;12420;42.676;23.262;2023-08-30T13:10:59;93652.03;;;30.59;25.38
12077;BME280;12420;42.676;23.262;2023-08-30T13:13:44;93613.06;;;30.33;25.43
12077;BME280;12420;42.676;23.262;2023-08-30T13:16:14;93696.94;;;30.54;25.54
12077;BME280;12420;42.676;23.262;2023-08-30T13:18:41;93658.72;;;30.33;25.44
12077;BME280;12420;42.676;23.262;2023-08-30T13:21:11;93637.06;;;30.60;25.72
12077;BME280;12420;42.676;23.262;2023-08-30T13:23:38;93575.72;;;30.21;25.83
12077;BME280;12420;42.676;23.262;2023-08-30T13:26:06;93602.66;;;30.52;25.80
12077;BME280;12420;42.676;23.262;2023-08-30T13:28:38;93628.50;;;30.58;25.00
12077;BME280;12420;42.676;23.262;2023-08-30T13:31:07;93651.94;;;30.95;24.73
12077;BME280;12420;42.676;23.262;2023-08-30T13:33:44;93605.56;;;30.54;24.74
12077;BME280;12420;42.676;23.262;2023-08-30T13:36:13;93611.31;;;30.56;24.64
12077;BME280;12420;42.676;23.262;2023-08-30T13:38:39;93555.94;;;30.31;24.64